createdAt,value
2022-08-31T00:03:25.721Z,2.67
2022-08-31T00:18:27.888Z,3.20
2022-08-31T00:33:29.930Z,5.35
2022-08-31T00:48:38.091Z,5.22
2022-08-31T01:03:40.139Z,4.63
2022-08-31T01:18:43.297Z,4.20
2022-08-31T01:33:45.295Z,5.93
2022-08-31T01:48:57.255Z,5.05
2022-08-31T02:03:59.410Z,5.00
2022-08-31T02:19:01.563Z,2.97
2022-08-31T02:34:03.999Z,4.30
2022-08-31T02:49:06.333Z,4.15
2022-08-31T03:04:08.947Z,3.72
2022-08-31T03:19:11.047Z,4.60
2022-08-31T03:34:16.048Z,4.78
2022-08-31T03:49:20.904Z,6.43
2022-08-31T04:04:22.935Z,5.75
2022-08-31T04:19:27.144Z,7.50
2022-08-31T04:34:29.173Z,4.60
2022-08-31T04:49:31.366Z,6.45
2022-08-31T05:04:33.480Z,5.05
2022-08-31T05:19:41.037Z,6.07
2022-08-31T05:34:43.435Z,5.35
2022-08-31T05:49:47.802Z,4.22
2022-08-31T06:04:52.215Z,5.05
2022-08-31T06:19:55.316Z,3.00
2022-08-31T06:34:57.358Z,4.15
2022-08-31T06:50:00.189Z,3.03
2022-08-31T07:05:02.187Z,1.45
2022-08-31T07:20:04.557Z,2.92
2022-08-31T07:35:07.238Z,2.85
2022-08-31T07:50:10.320Z,1.88
2022-08-31T08:05:21.518Z,1.77
2022-08-31T08:20:37.919Z,1.38
2022-08-31T08:35:41.306Z,0.90
2022-08-31T08:50:44.897Z,1.73
2022-08-31T09:05:50.017Z,1.80
2022-08-31T09:21:25.788Z,0.60
2022-08-31T09:36:43.003Z,2.95
2022-08-31T09:51:48.818Z,1.80
2022-08-31T10:07:14.399Z,3.65
2022-08-31T10:22:25.930Z,3.03
2022-08-31T10:37:43.876Z,1.40
2022-08-31T10:53:03.404Z,0.85
2022-08-31T11:08:30.204Z,0.90
2022-08-31T11:24:03.249Z,1.63
2022-08-31T11:39:05.186Z,1.00
2022-08-31T11:54:23.084Z,1.02
2022-08-31T12:09:55.703Z,1.00
2022-08-31T12:25:18.026Z,1.08
2022-08-31T12:40:23.622Z,1.15
2022-08-31T12:55:32.510Z,0.95
2022-08-31T13:10:38.416Z,1.08
2022-08-31T13:25:41.212Z,0.55
2022-08-31T13:40:53.700Z,1.48
2022-08-31T13:55:55.965Z,0.60
2022-08-31T14:11:00.176Z,1.08
2022-08-31T14:26:29.845Z,1.52
2022-08-31T14:56:43.796Z,1.83
2022-08-31T15:11:47.445Z,1.52
2022-08-31T15:26:52.184Z,1.95
2022-08-31T15:41:55.312Z,1.50
2022-08-31T15:56:58.446Z,1.10
2022-08-31T16:12:02.392Z,1.42
2022-08-31T16:27:15.962Z,1.50
2022-08-31T16:42:18.685Z,1.23
2022-08-31T16:57:23.842Z,1.80
2022-08-31T17:12:27.614Z,1.60
2022-08-31T17:27:30.105Z,2.05
2022-08-31T17:42:35.204Z,1.48
2022-08-31T17:57:42.001Z,1.42
2022-08-31T18:12:44.097Z,0.80
2022-08-31T18:27:50.865Z,1.85
2022-08-31T18:43:11.932Z,1.83
2022-08-31T18:58:14.408Z,1.50
2022-08-31T19:13:20.410Z,1.90
2022-08-31T19:28:22.852Z,2.85
2022-08-31T19:43:53.562Z,1.77
2022-08-31T19:58:57.336Z,4.38
2022-08-31T20:14:00.389Z,3.17
2022-08-31T20:29:06.985Z,3.13
2022-08-31T20:44:17.186Z,5.38
2022-08-31T20:59:23.667Z,3.90
2022-08-31T21:14:28.185Z,5.47
2022-08-31T21:29:30.666Z,4.53
2022-08-31T21:44:33.305Z,3.88
2022-08-31T21:59:42.948Z,1.63
2022-08-31T22:14:45.185Z,2.00
2022-08-31T22:29:49.046Z,2.65
2022-08-31T22:44:51.304Z,2.88
2022-08-31T22:59:54.831Z,4.68
2022-08-31T23:14:57.408Z,2.78
2022-08-31T23:30:04.428Z,2.80
2022-08-31T23:45:07.709Z,3.08
